createdAt,value
2018-02-11T00:00:30.260Z,16.48
2018-02-11T00:02:58.331Z,11.15
2018-02-11T00:05:26.361Z,9.90
2018-02-11T00:07:54.371Z,9.35
2018-02-11T00:10:22.405Z,12.07
2018-02-11T00:12:50.417Z,10.07
2018-02-11T00:15:18.422Z,10.43
2018-02-11T00:17:46.416Z,13.68
2018-02-11T00:20:14.719Z,11.65
2018-02-11T00:22:42.804Z,12.90
2018-02-11T00:25:10.812Z,10.95
2018-02-11T00:27:38.800Z,19.05
2018-02-11T00:30:06.929Z,21.17
2018-02-11T00:32:34.928Z,8.48
2018-02-11T00:35:02.952Z,12.48
2018-02-11T00:37:36.922Z,11.25
2018-02-11T00:40:04.987Z,10.13
2018-02-11T00:42:32.993Z,9.60
2018-02-11T00:45:01.061Z,11.05
2018-02-11T00:47:29.045Z,8.98
2018-02-11T00:49:57.025Z,11.20
2018-02-11T00:52:25.009Z,11.95
2018-02-11T00:54:53.044Z,13.62
2018-02-11T00:57:21.021Z,16.10
2018-02-11T00:59:49.052Z,16.08
2018-02-11T01:02:17.061Z,11.12
2018-02-11T01:04:45.069Z,12.57
2018-02-11T01:07:13.057Z,8.98
2018-02-11T01:09:41.045Z,11.38
2018-02-11T01:12:09.049Z,11.73
2018-02-11T01:14:37.041Z,13.93
2018-02-11T01:17:05.025Z,12.63
2018-02-11T01:19:33.008Z,10.35
2018-02-11T01:22:00.986Z,11.85
2018-02-11T01:24:29.017Z,10.00
2018-02-11T01:26:57.048Z,8.95
2018-02-11T01:29:25.022Z,11.95
2018-02-11T01:31:53.116Z,17.25
2018-02-11T01:34:21.116Z,13.32
2018-02-11T01:36:49.171Z,7.55
2018-02-11T01:39:17.164Z,9.70
2018-02-11T01:41:45.193Z,16.77
2018-02-11T01:44:28.174Z,12.32
2018-02-11T01:46:56.193Z,13.55
2018-02-11T01:49:24.210Z,9.57
2018-02-11T01:51:52.203Z,10.10
2018-02-11T01:54:20.232Z,12.02
2018-02-11T01:56:48.253Z,8.10
2018-02-11T01:59:16.263Z,8.18
2018-02-11T02:01:44.281Z,11.55
2018-02-11T02:04:12.295Z,17.35
2018-02-11T02:06:40.268Z,9.15
2018-02-11T02:09:08.281Z,7.32
2018-02-11T02:11:36.281Z,10.50
2018-02-11T02:14:04.345Z,10.00
2018-02-11T02:16:32.341Z,10.18
2018-02-11T02:19:00.349Z,9.30
2018-02-11T02:21:28.340Z,11.60
2018-02-11T02:23:56.373Z,16.50
2018-02-11T02:26:24.372Z,10.52
2018-02-11T02:28:52.400Z,10.70
2018-02-11T02:31:20.449Z,11.43
2018-02-11T02:33:49.579Z,8.80
2018-02-11T02:36:17.554Z,15.35
2018-02-11T02:38:45.589Z,8.05
2018-02-11T02:41:13.560Z,10.25
2018-02-11T02:43:41.606Z,7.40
2018-02-11T02:46:09.601Z,14.75
2018-02-11T02:48:37.627Z,9.00
2018-02-11T02:51:05.604Z,13.00
2018-02-11T02:53:33.569Z,9.40
2018-02-11T02:56:02.598Z,9.45
2018-02-11T02:58:30.575Z,11.48
2018-02-11T03:00:58.590Z,11.38
2018-02-11T03:03:26.611Z,10.75
2018-02-11T03:05:54.603Z,13.68
2018-02-11T03:08:23.609Z,9.77
2018-02-11T03:10:51.633Z,11.10
2018-02-11T03:13:19.668Z,9.85
2018-02-11T03:15:47.657Z,11.80
2018-02-11T03:18:15.638Z,9.63
2018-02-11T03:20:43.649Z,11.23
2018-02-11T03:23:11.641Z,10.63
2018-02-11T03:25:39.657Z,9.90
2018-02-11T03:28:07.662Z,8.43
2018-02-11T03:30:35.694Z,8.73
2018-02-11T03:33:03.689Z,9.15
2018-02-11T03:35:31.671Z,13.60
2018-02-11T03:37:59.720Z,11.82
2018-02-11T03:40:27.720Z,9.70
2018-02-11T03:42:55.712Z,10.27
2018-02-11T03:45:23.755Z,8.73
2018-02-11T03:47:51.740Z,8.93
2018-02-11T03:50:19.728Z,9.85
2018-02-11T03:52:47.806Z,8.25
2018-02-11T03:55:15.848Z,9.02
2018-02-11T03:57:43.870Z,8.05
2018-02-11T04:00:11.874Z,5.65
2018-02-11T04:02:39.844Z,8.18
2018-02-11T04:05:07.911Z,9.73
2018-02-11T04:07:35.937Z,8.88
2018-02-11T04:10:03.920Z,7.93
2018-02-11T04:12:31.918Z,8.75
2018-02-11T04:14:59.958Z,6.70
2018-02-11T04:17:28.029Z,10.05
2018-02-11T04:19:56.037Z,5.72
2018-02-11T04:22:24.037Z,5.75
2018-02-11T04:24:52.071Z,8.80
2018-02-11T04:27:20.121Z,5.43
2018-02-11T04:29:48.101Z,7.37
2018-02-11T04:32:16.109Z,6.87
2018-02-11T04:34:44.110Z,7.50
2018-02-11T04:37:12.178Z,14.30
2018-02-11T04:39:40.170Z,8.32
2018-02-11T04:42:08.166Z,7.70
2018-02-11T04:44:36.161Z,9.07
2018-02-11T04:47:04.160Z,7.03
2018-02-11T04:49:32.217Z,4.03
2018-02-11T04:52:00.261Z,6.72
2018-02-11T04:54:28.296Z,7.85
2018-02-11T04:56:56.329Z,6.05
2018-02-11T04:59:24.315Z,11.02
2018-02-11T05:01:52.315Z,8.68
2018-02-11T05:04:20.289Z,9.38
2018-02-11T05:06:48.281Z,12.02
2018-02-11T05:09:16.289Z,6.97
2018-02-11T05:11:44.332Z,10.05
2018-02-11T05:14:12.325Z,10.27
2018-02-11T05:16:40.314Z,15.90
2018-02-11T05:19:08.307Z,7.25
2018-02-11T05:21:36.366Z,8.80
2018-02-11T05:24:04.353Z,13.43
2018-02-11T05:26:32.337Z,9.18
2018-02-11T05:29:00.305Z,15.35
2018-02-11T05:31:28.276Z,7.22
2018-02-11T05:33:56.264Z,6.32
2018-02-11T05:36:24.265Z,7.03
2018-02-11T05:38:52.269Z,7.82
2018-02-11T05:41:20.281Z,10.45
2018-02-11T05:43:48.293Z,13.00
2018-02-11T05:46:16.302Z,15.43
2018-02-11T05:48:44.289Z,12.80
2018-02-11T05:51:12.321Z,6.85
2018-02-11T05:53:40.345Z,11.20
2018-02-11T05:56:08.337Z,12.15
2018-02-11T05:58:36.366Z,9.60
2018-02-11T06:01:04.360Z,11.23
2018-02-11T06:03:32.365Z,9.82
2018-02-11T06:06:00.368Z,8.52
2018-02-11T06:08:28.365Z,18.45
2018-02-11T06:10:56.390Z,13.98
2018-02-11T06:13:24.385Z,10.63
2018-02-11T06:15:52.393Z,6.93
2018-02-11T06:18:20.443Z,14.75
2018-02-11T06:20:48.444Z,11.27
2018-02-11T06:23:16.445Z,12.70
2018-02-11T06:25:45.477Z,9.00
2018-02-11T06:28:13.489Z,12.27
2018-02-11T06:30:41.495Z,16.77
2018-02-11T06:33:09.512Z,12.85
2018-02-11T06:35:37.552Z,14.30
2018-02-11T06:38:05.553Z,12.23
2018-02-11T06:40:33.629Z,12.68
2018-02-11T06:43:01.621Z,13.35
2018-02-11T06:45:29.669Z,17.92
2018-02-11T06:47:57.689Z,20.20
2018-02-11T06:50:25.728Z,16.30
2018-02-11T06:52:53.744Z,13.95
2018-02-11T06:55:21.774Z,18.17
2018-02-11T06:57:49.758Z,11.50
2018-02-11T07:00:17.781Z,13.68
2018-02-11T07:02:45.761Z,12.43
2018-02-11T07:05:13.737Z,11.90
2018-02-11T07:07:41.713Z,10.73
2018-02-11T07:10:09.793Z,17.73
2018-02-11T07:12:38.038Z,19.33
2018-02-11T07:15:06.326Z,13.10
2018-02-11T07:17:34.593Z,16.48
2018-02-11T07:20:02.694Z,16.65
2018-02-11T07:22:30.690Z,14.63
2018-02-11T07:24:58.697Z,15.27
2018-02-11T07:27:26.747Z,13.50
2018-02-11T07:29:54.756Z,22.25
2018-02-11T07:32:22.753Z,19.33
2018-02-11T07:34:51.869Z,13.23
2018-02-11T07:37:19.869Z,16.10
2018-02-11T07:39:47.877Z,14.20
2018-02-11T07:42:15.860Z,14.05
2018-02-11T07:44:43.894Z,17.40
2018-02-11T07:47:11.961Z,18.58
2018-02-11T07:49:40.043Z,21.48
2018-02-11T07:52:08.101Z,23.83
2018-02-11T07:54:36.258Z,16.60
2018-02-11T07:57:04.297Z,18.73
2018-02-11T07:59:32.333Z,19.25
2018-02-11T08:02:00.451Z,22.17
2018-02-11T08:04:28.472Z,21.00
2018-02-11T08:06:56.538Z,19.55
2018-02-11T08:09:24.625Z,17.83
2018-02-11T08:11:52.681Z,14.40
2018-02-11T08:14:20.686Z,16.00
2018-02-11T08:16:48.697Z,20.00
2018-02-11T08:19:16.735Z,19.77
2018-02-11T08:21:44.704Z,27.83
2018-02-11T08:24:12.714Z,17.10
2018-02-11T08:26:40.769Z,21.00
2018-02-11T08:29:08.825Z,16.87
2018-02-11T08:31:36.920Z,21.35
2018-02-11T08:34:05.144Z,16.23
2018-02-11T08:36:33.228Z,18.80
2018-02-11T08:39:01.237Z,15.38
2018-02-11T08:41:29.251Z,15.40
2018-02-11T08:43:57.265Z,19.98
2018-02-11T08:46:25.281Z,12.10
2018-02-11T08:48:53.338Z,16.23
2018-02-11T08:51:21.345Z,12.93
2018-02-11T08:53:49.370Z,13.52
2018-02-11T08:56:17.360Z,16.62
2018-02-11T08:58:45.358Z,15.07
2018-02-11T09:01:13.385Z,17.85
2018-02-11T09:03:41.422Z,14.07
2018-02-11T09:06:09.445Z,14.25
2018-02-11T09:08:37.500Z,15.70
2018-02-11T09:11:05.646Z,16.80
2018-02-11T09:13:33.805Z,14.15
2018-02-11T09:16:02.886Z,14.65
2018-02-11T09:18:30.935Z,11.88
2018-02-11T09:20:58.954Z,15.68
2018-02-11T09:23:26.972Z,10.80
2018-02-11T09:25:55.044Z,11.65
2018-02-11T09:28:23.090Z,9.70
2018-02-11T09:30:51.165Z,9.10
2018-02-11T09:33:19.134Z,10.43
2018-02-11T09:35:47.138Z,7.28
2018-02-11T09:38:15.178Z,3.40
2018-02-11T09:40:43.180Z,6.80
2018-02-11T09:43:11.189Z,4.10
2018-02-11T09:45:39.261Z,4.45
2018-02-11T09:48:07.469Z,4.60
2018-02-11T09:50:36.554Z,4.95
2018-02-11T09:53:04.645Z,3.62
2018-02-11T09:55:32.650Z,5.37
2018-02-11T09:58:00.693Z,5.25
2018-02-11T10:00:28.694Z,7.78
2018-02-11T10:02:56.681Z,2.55
2018-02-11T10:05:24.769Z,2.17
2018-02-11T10:07:52.815Z,3.67
2018-02-11T10:10:20.812Z,3.33
2018-02-11T10:12:48.816Z,2.70
2018-02-11T10:15:16.864Z,4.10
2018-02-11T10:17:44.884Z,4.10
2018-02-11T10:20:12.899Z,1.55
2018-02-11T10:22:41.029Z,4.15
2018-02-11T10:25:09.086Z,1.50
2018-02-11T10:27:37.242Z,1.70
2018-02-11T10:30:05.474Z,2.05
2018-02-11T10:32:33.581Z,5.37
2018-02-11T10:35:01.613Z,1.92
2018-02-11T10:37:29.746Z,2.58
2018-02-11T10:39:57.741Z,3.08
2018-02-11T10:42:25.780Z,2.35
2018-02-11T10:44:53.866Z,1.52
2018-02-11T10:47:21.937Z,3.50
2018-02-11T10:49:49.938Z,2.05
2018-02-11T10:52:17.969Z,3.40
2018-02-11T10:54:45.965Z,2.33
2018-02-11T10:57:14.015Z,3.28
2018-02-11T10:59:42.054Z,2.30
2018-02-11T11:02:10.086Z,2.03
2018-02-11T11:04:38.197Z,1.20
2018-02-11T11:07:06.320Z,1.83
2018-02-11T11:09:34.536Z,3.05
2018-02-11T11:12:02.673Z,2.42
2018-02-11T11:14:30.665Z,2.03
2018-02-11T11:16:58.668Z,2.83
2018-02-11T11:19:26.685Z,2.33
2018-02-11T11:21:54.725Z,2.22
2018-02-11T11:24:22.717Z,2.75
2018-02-11T11:26:50.784Z,1.17
2018-02-11T11:29:18.780Z,2.35
2018-02-11T11:31:46.773Z,2.15
2018-02-11T11:34:14.782Z,1.30
2018-02-11T11:36:42.804Z,2.20
2018-02-11T11:39:10.790Z,1.75
2018-02-11T11:41:38.793Z,1.70
2018-02-11T11:44:06.835Z,1.92
2018-02-11T11:46:34.865Z,3.00
2018-02-11T11:49:03.020Z,2.30
2018-02-11T11:51:32.057Z,3.03
2018-02-11T11:54:00.273Z,2.97
2018-02-11T11:56:28.323Z,4.57
2018-02-11T11:58:56.359Z,2.90
2018-02-11T12:01:24.345Z,3.78
2018-02-11T12:03:52.345Z,2.40
2018-02-11T12:06:20.315Z,2.15
2018-02-11T12:08:48.464Z,5.87
2018-02-11T12:11:16.487Z,2.87
2018-02-11T12:13:44.550Z,3.60
2018-02-11T12:16:12.577Z,3.03
2018-02-11T12:18:40.572Z,3.12
2018-02-11T12:21:08.625Z,3.00
2018-02-11T12:23:36.617Z,2.00
2018-02-11T12:26:04.645Z,4.03
2018-02-11T12:28:32.666Z,3.30
2018-02-11T12:31:00.669Z,1.83
2018-02-11T12:33:28.688Z,1.12
2018-02-11T12:35:56.713Z,1.80
2018-02-11T12:38:24.830Z,3.90
2018-02-11T12:40:52.805Z,2.47
2018-02-11T12:43:20.837Z,2.62
2018-02-11T12:45:48.801Z,2.15
2018-02-11T12:48:16.782Z,1.45
2018-02-11T12:50:44.837Z,1.67
2018-02-11T12:53:13.673Z,2.15
2018-02-11T12:55:41.672Z,1.73
2018-02-11T12:58:09.674Z,1.95
2018-02-11T13:00:37.721Z,2.03
2018-02-11T13:03:05.794Z,2.85
2018-02-11T13:05:33.821Z,2.37
2018-02-11T13:08:01.882Z,4.70
2018-02-11T13:10:29.882Z,3.67
2018-02-11T13:12:57.901Z,3.15
2018-02-11T13:15:25.918Z,3.30
2018-02-11T13:17:53.981Z,1.75
2018-02-11T13:20:21.998Z,2.67
2018-02-11T13:22:49.989Z,2.30
2018-02-11T13:25:18.040Z,2.12
2018-02-11T13:27:46.101Z,1.65
2018-02-11T13:30:14.096Z,2.75
2018-02-11T13:32:42.115Z,3.50
2018-02-11T13:35:10.105Z,2.83
2018-02-11T13:37:38.123Z,2.47
2018-02-11T13:40:06.174Z,2.67
2018-02-11T13:42:34.237Z,2.22
2018-02-11T13:45:02.249Z,2.10
2018-02-11T13:47:30.288Z,5.10
2018-02-11T13:49:58.317Z,3.58
2018-02-11T13:52:26.353Z,4.22
2018-02-11T13:54:54.414Z,3.92
2018-02-11T13:57:22.460Z,4.53
2018-02-11T13:59:50.476Z,4.32
2018-02-11T14:02:18.485Z,3.80
2018-02-11T14:04:46.473Z,3.33
2018-02-11T14:07:14.478Z,8.55
2018-02-11T14:09:42.487Z,13.95
2018-02-11T14:12:10.477Z,11.40
2018-02-11T14:14:38.561Z,7.90
2018-02-11T14:17:06.765Z,12.50
2018-02-11T14:19:34.856Z,4.05
2018-02-11T14:22:02.841Z,8.10
2018-02-11T14:24:30.857Z,5.10
2018-02-11T14:26:59.863Z,9.73
2018-02-11T14:29:27.859Z,6.60
2018-02-11T14:31:55.868Z,5.55
2018-02-11T14:34:23.885Z,6.97
2018-02-11T14:36:51.942Z,6.80
2018-02-11T14:39:19.999Z,5.18
2018-02-11T14:41:48.017Z,3.78
2018-02-11T14:44:16.061Z,4.30
2018-02-11T14:46:44.097Z,3.10
2018-02-11T14:49:12.113Z,3.37
2018-02-11T14:51:40.127Z,2.78
2018-02-11T14:54:08.249Z,3.03
2018-02-11T14:56:36.321Z,2.10
2018-02-11T14:59:04.486Z,2.20
2018-02-11T15:01:32.689Z,4.22
2018-02-11T15:04:00.887Z,3.83
2018-02-11T15:06:28.989Z,2.65
2018-02-11T15:08:58.141Z,7.53
2018-02-11T15:11:26.282Z,6.68
2018-02-11T15:13:54.430Z,5.85
2018-02-11T15:16:22.430Z,6.22
2018-02-11T15:18:50.432Z,4.80
2018-02-11T15:21:18.699Z,2.35
2018-02-11T15:23:46.841Z,8.48
2018-02-11T15:26:14.857Z,4.10
2018-02-11T15:28:42.949Z,3.90
2018-02-11T15:31:11.172Z,5.30
2018-02-11T15:33:39.584Z,6.80
2018-02-11T15:36:08.214Z,3.20
2018-02-11T15:38:36.717Z,2.92
2018-02-11T15:41:05.393Z,3.15
2018-02-11T15:43:34.259Z,3.37
2018-02-11T15:46:02.790Z,2.70
2018-02-11T15:48:31.041Z,4.82
2018-02-11T15:50:59.253Z,2.55
2018-02-11T15:53:27.561Z,3.70
2018-02-11T15:55:55.817Z,3.00
2018-02-11T15:58:23.824Z,3.10
2018-02-11T16:00:51.802Z,5.70
2018-02-11T16:03:19.822Z,3.33
2018-02-11T16:05:47.847Z,3.58
2018-02-11T16:08:15.882Z,4.60
2018-02-11T16:10:43.883Z,3.95
2018-02-11T16:13:11.894Z,4.43
2018-02-11T16:15:39.909Z,3.12
2018-02-11T16:18:07.925Z,5.15
2018-02-11T16:20:35.943Z,3.62
2018-02-11T16:23:03.995Z,3.42
2018-02-11T16:25:32.000Z,5.10
2018-02-11T16:28:01.004Z,5.95
2018-02-11T16:30:29.000Z,2.70
2018-02-11T16:32:56.993Z,5.10
2018-02-11T16:35:24.995Z,6.05
2018-02-11T16:37:52.993Z,2.97
2018-02-11T16:40:21.019Z,5.22
2018-02-11T16:42:49.066Z,5.05
2018-02-11T16:45:17.093Z,5.35
2018-02-11T16:47:46.111Z,7.35
2018-02-11T16:50:14.137Z,3.42
2018-02-11T16:52:42.119Z,2.92
2018-02-11T16:55:10.263Z,2.92
2018-02-11T16:57:38.401Z,6.12
2018-02-11T17:00:06.718Z,5.45
2018-02-11T17:02:35.030Z,4.40
2018-02-11T17:05:03.410Z,8.02
2018-02-11T17:07:31.526Z,3.55
2018-02-11T17:09:59.536Z,4.62
2018-02-11T17:12:27.532Z,6.40
2018-02-11T17:14:55.761Z,3.15
2018-02-11T17:17:24.897Z,3.50
2018-02-11T17:19:52.913Z,2.15
2018-02-11T17:22:20.929Z,5.93
2018-02-11T17:24:48.947Z,7.70
2018-02-11T17:27:16.930Z,6.68
2018-02-11T17:29:44.941Z,2.42
2018-02-11T17:32:12.969Z,3.58
2018-02-11T17:34:41.067Z,5.25
2018-02-11T17:37:09.325Z,3.92
2018-02-11T17:39:37.596Z,6.97
2018-02-11T17:42:06.042Z,5.10
2018-02-11T17:44:34.566Z,14.00
2018-02-11T17:47:02.877Z,11.10
2018-02-11T17:49:30.858Z,10.73
2018-02-11T17:51:58.962Z,7.50
2018-02-11T17:54:27.216Z,4.95
2018-02-11T17:56:55.318Z,4.55
2018-02-11T17:59:23.361Z,3.92
2018-02-11T18:01:51.420Z,4.62
2018-02-11T18:04:19.468Z,4.35
2018-02-11T18:06:47.730Z,5.50
2018-02-11T18:09:15.743Z,4.37
2018-02-11T18:11:44.105Z,3.58
2018-02-11T18:14:12.342Z,13.50
2018-02-11T18:16:40.349Z,4.87
2018-02-11T18:19:08.619Z,3.92
2018-02-11T18:21:36.727Z,5.87
2018-02-11T18:24:04.935Z,5.32
2018-02-11T18:26:33.015Z,3.70
2018-02-11T18:29:01.099Z,5.75
2018-02-11T18:31:29.033Z,6.22
2018-02-11T18:33:56.992Z,6.07
2018-02-11T18:36:25.055Z,5.55
2018-02-11T18:38:53.492Z,5.20
2018-02-11T18:41:21.605Z,6.78
2018-02-11T18:43:49.616Z,5.03
2018-02-11T18:46:17.619Z,7.65
2018-02-11T18:48:45.666Z,10.68
2018-02-11T18:51:13.714Z,9.63
2018-02-11T18:53:41.665Z,7.35
2018-02-11T18:56:09.683Z,7.72
2018-02-11T18:58:37.757Z,7.95
2018-02-11T19:01:05.833Z,5.72
2018-02-11T19:03:35.253Z,10.73
2018-02-11T19:06:03.453Z,4.50
2018-02-11T19:08:31.822Z,8.63
2018-02-11T19:10:59.806Z,7.62
2018-02-11T19:13:27.914Z,7.47
2018-02-11T19:15:55.913Z,4.53
2018-02-11T19:18:23.974Z,5.05
2018-02-11T19:20:51.996Z,3.60
2018-02-11T19:23:20.021Z,7.12
2018-02-11T19:25:48.026Z,6.10
2018-02-11T19:28:16.067Z,4.95
2018-02-11T19:30:44.101Z,7.03
2018-02-11T19:33:12.157Z,9.50
2018-02-11T19:35:41.361Z,9.63
2018-02-11T19:38:10.418Z,13.27
2018-02-11T19:40:38.462Z,13.45
2018-02-11T19:43:06.602Z,11.18
2018-02-11T19:45:36.055Z,10.10
2018-02-11T19:48:04.425Z,13.60
2018-02-11T19:50:32.524Z,10.63
2018-02-11T19:53:01.650Z,8.25
2018-02-11T19:55:29.646Z,6.75
2018-02-11T19:57:57.703Z,8.23
2018-02-11T20:00:25.709Z,8.25
2018-02-11T20:02:53.737Z,6.55
2018-02-11T20:05:23.896Z,5.87
2018-02-11T20:07:53.181Z,6.12
2018-02-11T20:10:21.202Z,7.37
2018-02-11T20:12:49.202Z,5.85
2018-02-11T20:15:17.221Z,3.72
2018-02-11T20:17:45.250Z,7.68
2018-02-11T20:20:13.237Z,6.62
2018-02-11T20:22:41.257Z,8.57
2018-02-11T20:25:09.272Z,5.28
2018-02-11T20:27:37.314Z,6.53
2018-02-11T20:30:06.525Z,6.75
2018-02-11T20:32:34.736Z,10.80
2018-02-11T20:35:02.778Z,5.07
2018-02-11T20:37:30.753Z,5.55
2018-02-11T20:39:58.761Z,11.30
2018-02-11T20:42:26.760Z,10.75
2018-02-11T20:44:54.785Z,7.43
2018-02-11T20:47:22.814Z,5.82
2018-02-11T20:49:50.870Z,9.20
2018-02-11T20:52:18.871Z,9.93
2018-02-11T20:54:46.893Z,11.30
2018-02-11T20:57:14.940Z,6.12
2018-02-11T20:59:42.920Z,6.22
2018-02-11T21:02:10.958Z,9.80
2018-02-11T21:04:38.940Z,7.65
2018-02-11T21:07:06.945Z,6.25
2018-02-11T21:09:35.041Z,5.97
2018-02-11T21:12:03.074Z,7.60
2018-02-11T21:14:31.089Z,10.25
2018-02-11T21:16:59.069Z,7.28
2018-02-11T21:19:27.115Z,7.20
2018-02-11T21:21:55.141Z,8.07
2018-02-11T21:24:23.229Z,8.88
2018-02-11T21:26:51.265Z,7.68
2018-02-11T21:29:19.276Z,10.02
2018-02-11T21:31:47.265Z,7.95
2018-02-11T21:34:15.253Z,6.32
2018-02-11T21:36:43.265Z,7.20
2018-02-11T21:39:11.421Z,9.43
2018-02-11T21:41:39.592Z,11.70
2018-02-11T21:44:07.636Z,7.87
2018-02-11T21:46:35.733Z,15.93
2018-02-11T21:49:03.910Z,4.37
2018-02-11T21:51:31.973Z,5.80
2018-02-11T21:53:59.956Z,9.73
2018-02-11T21:56:27.973Z,10.23
2018-02-11T21:58:56.023Z,7.07
2018-02-11T22:01:24.059Z,5.70
2018-02-11T22:03:52.108Z,6.75
2018-02-11T22:06:20.136Z,5.68
2018-02-11T22:08:48.167Z,8.70
2018-02-11T22:11:16.252Z,8.15
2018-02-11T22:13:44.272Z,12.40
2018-02-11T22:16:12.275Z,12.02
2018-02-11T22:18:40.309Z,8.50
2018-02-11T22:21:08.300Z,7.40
2018-02-11T22:23:36.377Z,10.77
2018-02-11T22:26:04.486Z,8.15
2018-02-11T22:28:32.517Z,6.37
2018-02-11T22:31:00.503Z,13.40
2018-02-11T22:33:28.705Z,10.25
2018-02-11T22:35:56.717Z,6.85
2018-02-11T22:38:24.722Z,5.55
2018-02-11T22:40:52.721Z,7.18
2018-02-11T22:43:20.729Z,11.00
2018-02-11T22:45:49.774Z,5.62
2018-02-11T22:48:17.741Z,4.62
2018-02-11T22:50:45.822Z,7.55
2018-02-11T22:53:13.832Z,16.45
2018-02-11T22:55:41.828Z,4.20
2018-02-11T22:58:09.856Z,9.40
2018-02-11T23:00:37.899Z,12.98
2018-02-11T23:03:05.907Z,10.18
2018-02-11T23:05:33.898Z,10.07
2018-02-11T23:08:01.909Z,8.82
2018-02-11T23:10:30.589Z,19.10
2018-02-11T23:12:59.069Z,19.05
2018-02-11T23:15:27.101Z,8.98
2018-02-11T23:17:55.093Z,17.02
2018-02-11T23:20:23.110Z,6.93
2018-02-11T23:22:53.590Z,6.20
2018-02-11T23:25:21.872Z,11.40
2018-02-11T23:27:49.852Z,11.55
2018-02-11T23:30:17.856Z,10.57
2018-02-11T23:32:45.883Z,6.25
2018-02-11T23:35:13.904Z,10.20
2018-02-11T23:37:41.891Z,9.38
2018-02-11T23:40:09.900Z,5.85
2018-02-11T23:42:37.921Z,9.52
2018-02-11T23:45:05.923Z,9.70
2018-02-11T23:47:33.885Z,13.48
2018-02-11T23:50:01.908Z,11.48
2018-02-11T23:52:29.941Z,10.38
2018-02-11T23:54:57.982Z,8.82
2018-02-11T23:57:27.029Z,15.07
2018-02-11T23:59:55.037Z,7.07
